Durango, CO

1:27 PM MDT on August 22, 2014 (GMT -0600)
Cortez Municipal | Change Station
CLOSE
Current Station
Airport
Location: Cortez,
Elevation: 5915 ft
Nearby Weather Stations

Elev 5915 ft 37.31 °N, 108.63 °W | Updated 34 minutes ago

Overcast
Overcast
72 °F
Feels Like 72 °F
N
8
Wind Variable Wind from SSE

Today
High -- | Low -- °F
--% Chance of Precip.
Yesterday
High -- | Low -- °F
Precip. -- in
6:33 AM 7:54 PM
Waning Crescent, 7% visible
Pressure 29.97 in
Visibility 10.0 miles
Clouds Mostly Cloudy 4700 ft
Overcast 6000 ft
Dew Point 52 °F
Humidity 49%
Rainfall 0.10 in
Snow Depth 0 in , 0 in
UV 3 out of 12
Pollen 7.40 out of 12
Air Quality Not available.
Flu Activity Not available.
METAR KCEZ 221853Z AUTO 15007KT 10SM BKN047 OVC060 22/11 A3017 RMK AO2 SLP148 T02220111 $

More Conditions Fewer Conditions

Pressure 29.97 in
Visibility 10.0 miles
Clouds Mostly Cloudy 4700 ft
Overcast 6000 ft
Dew Point 52 °F
Humidity 49%
Rainfall 0.10 in
Snow Depth 0 in , 0 in
UV 3 out of 12
Pollen 7.40 out of 12
Air Quality Not available.
Flu Activity Not available.
METAR KCEZ 221853Z AUTO 15007KT 10SM BKN047 OVC060 22/11 A3017 RMK AO2 SLP148 T02220111 $

More Conditions Fewer Conditions

10-Day Weather Forecast

Almanac

Astronomy

Aug. 22, 2014 Rise Set
Actual Time 6:33 AM MDT 7:54 PM MDT
Civil Twilight 6:06 AM MDT 8:21 PM MDT
Nautical Twilight 5:33 AM MDT 8:53 PM MDT
Astronomical Twilight 4:59 AM MDT 9:27 PM MDT
Moon 4:00 AM MDT 6:03 PM MDT
Length of Visible Light 14h 15m
Length of Day
13h 20m
Tomorrow will be 2m 13s shorter.
Waning Crescent, 7% of the Moon is Illuminated
Today
Waning Crescent
Aug 25
New
Sep 2
First Quarter
Sep 8
Full
Sep 15
Last Quarter

Today's Extremes

State Highs State Lows

Community

WunderPhotos

Upload Photos

1,746,224 photos uploaded!

Nearby

Snow Depth

Station Depth Elevation
Columbus Basin 0 in 10785 ft
Sharkstooth 0 in 10720 ft
Vallecito 0 in 10880 ft
Cascade #2 0 in 8920 ft
Beartown 0 in 11600 ft

Earthquake Activity

City Distance Mag. Time & Date
No recent earthquake activity has been reported nearby.
Minimum magnitude displayed is 2.5.

Coastal Water Temperatures

Place Temperature
No Stations Reporting

Nearby Weather Stations